Terminal Aerodrome Forecast
Issued by NWS Albany, NY

Home | Current Version | Previous Version | Text Only | Print | Product List | Glossary On
Versions: 1 2 3 4 5 6 7 8 9 10 11 12 13 14 15 16 17 18 19 20
000
FTUS41 KALY 252300
TAFPOU
TAF
KPOU 252332Z 2600/2624 VRB05KT P6SM BKN080
     FM260400 25010KT P6SM BKN070
     FM261400 28010G17KT P6SM BKN250
     FM261600 29015G22KT P6SM OVC050=

USA.gov is the U.S. government's official web portal to all federal, state and local government web resources and services.